createdAt,value
2019-01-11T00:02:27.810Z,16.70
2019-01-11T00:08:32.365Z,16.90
2019-01-11T00:14:36.915Z,17.63
2019-01-11T00:20:41.484Z,19.47
2019-01-11T00:26:46.044Z,18.90
2019-01-11T00:32:50.604Z,20.10
2019-01-11T00:38:55.245Z,20.43
2019-01-11T00:44:59.803Z,21.20
2019-01-11T00:51:04.536Z,23.27
2019-01-11T00:57:09.082Z,19.20
2019-01-11T01:03:13.705Z,20.10
2019-01-11T01:09:18.343Z,20.70
2019-01-11T01:15:22.977Z,20.07
2019-01-11T01:21:27.535Z,20.60
2019-01-11T01:27:32.106Z,21.40
2019-01-11T01:33:36.638Z,19.00
2019-01-11T01:39:41.263Z,17.60
2019-01-11T01:45:45.956Z,16.87
2019-01-11T01:51:51.603Z,13.53
2019-01-11T01:57:56.157Z,14.57
2019-01-11T02:04:00.778Z,14.10
2019-01-11T02:10:09.635Z,13.40
2019-01-11T02:16:14.201Z,13.40
2019-01-11T02:22:19.540Z,14.73
2019-01-11T02:28:24.173Z,12.50
2019-01-11T02:34:28.727Z,13.70
2019-01-11T02:40:33.348Z,13.80
2019-01-11T02:46:37.976Z,15.50
2019-01-11T02:52:42.851Z,14.50
2019-01-11T02:58:47.402Z,14.20
2019-01-11T03:04:51.954Z,15.17
2019-01-11T03:10:56.507Z,13.27
2019-01-11T03:17:01.052Z,14.50
2019-01-11T03:23:05.681Z,15.00
2019-01-11T03:29:10.231Z,15.10
2019-01-11T03:35:15.591Z,15.23
2019-01-11T03:41:20.145Z,14.60
2019-01-11T03:47:24.764Z,14.67
2019-01-11T03:53:29.305Z,15.97
2019-01-11T03:59:33.992Z,14.60
2019-01-11T04:05:38.643Z,14.90
2019-01-11T04:11:43.225Z,15.00
2019-01-11T04:17:49.829Z,15.87
2019-01-11T04:23:54.390Z,11.90
2019-01-11T04:29:58.947Z,14.20
2019-01-11T04:36:03.565Z,14.37
2019-01-11T04:42:08.117Z,11.97
2019-01-11T04:48:32.235Z,13.83
2019-01-11T04:54:36.820Z,14.77
2019-01-11T05:00:41.359Z,16.80
2019-01-11T05:06:45.889Z,14.93
2019-01-11T05:12:50.545Z,13.90
2019-01-11T05:18:55.107Z,15.70
2019-01-11T05:24:59.651Z,16.63
2019-01-11T05:31:04.534Z,13.90
2019-01-11T05:37:09.074Z,14.53
2019-01-11T05:43:13.618Z,13.60
2019-01-11T05:49:18.154Z,13.20
2019-01-11T05:55:36.466Z,16.23
2019-01-11T06:01:41.073Z,14.30
2019-01-11T06:07:45.983Z,16.53
2019-01-11T06:13:50.517Z,13.50
2019-01-11T06:19:55.054Z,12.93
2019-01-11T06:25:59.593Z,14.37
2019-01-11T06:32:04.201Z,13.43
2019-01-11T06:38:08.740Z,12.27
2019-01-11T06:44:13.288Z,14.67
2019-01-11T06:50:18.265Z,13.97
2019-01-11T06:56:22.810Z,13.67
2019-01-11T07:02:27.377Z,12.20
2019-01-11T07:08:31.922Z,12.47
2019-01-11T07:14:36.464Z,12.10
2019-01-11T07:20:42.995Z,10.90
2019-01-11T07:26:47.277Z,11.73
2019-01-11T07:32:51.823Z,12.47
2019-01-11T07:38:56.432Z,11.80
2019-01-11T07:45:00.972Z,11.77
2019-01-11T07:51:05.595Z,11.43
2019-01-11T07:57:10.207Z,12.20
2019-01-11T08:03:14.753Z,11.93
2019-01-11T08:09:19.389Z,12.43
2019-01-11T08:15:23.955Z,12.90
2019-01-11T08:21:28.562Z,13.27
2019-01-11T08:27:33.097Z,12.77
2019-01-11T08:33:37.793Z,12.23
2019-01-11T08:39:42.343Z,12.57
2019-01-11T08:45:46.971Z,14.40
2019-01-11T08:51:51.603Z,14.03
2019-01-11T08:57:56.303Z,12.83
2019-01-11T09:04:00.830Z,13.30
2019-01-11T09:10:22.237Z,12.73
2019-01-11T09:16:21.792Z,12.20
2019-01-11T09:22:26.363Z,13.33
2019-01-11T09:28:30.888Z,12.53
2019-01-11T09:34:35.442Z,13.60
2019-01-11T09:40:39.983Z,13.10
2019-01-11T09:46:44.517Z,12.47
2019-01-11T09:52:49.075Z,11.80
2019-01-11T09:58:55.415Z,12.43
2019-01-11T10:04:59.969Z,10.63
2019-01-11T10:11:04.792Z,12.10
2019-01-11T10:17:09.347Z,10.70
2019-01-11T10:23:13.964Z,11.23
2019-01-11T10:29:18.528Z,13.10
2019-01-11T10:35:23.298Z,11.73
2019-01-11T10:41:27.927Z,13.70
2019-01-11T10:47:32.545Z,13.27
2019-01-11T10:53:37.129Z,12.70
2019-01-11T10:59:41.803Z,12.93
2019-01-11T11:05:46.339Z,13.03
2019-01-11T11:11:50.891Z,12.10
2019-01-11T11:17:55.537Z,12.80
2019-01-11T11:24:00.092Z,12.07
2019-01-11T11:30:07.076Z,11.23
2019-01-11T11:36:11.610Z,11.57
2019-01-11T11:42:16.968Z,12.63
2019-01-11T11:48:21.563Z,12.13
2019-01-11T11:54:26.099Z,12.40
2019-01-11T12:00:30.712Z,16.50
2019-01-11T12:06:35.253Z,12.00
2019-01-11T12:12:39.789Z,10.63
2019-01-11T12:18:44.353Z,9.47
2019-01-11T12:24:48.893Z,9.03
2019-01-11T12:30:53.428Z,8.00
2019-01-11T12:36:57.957Z,8.13
2019-01-11T12:43:02.515Z,6.67
2019-01-11T12:49:07.139Z,7.27
2019-01-11T12:55:11.739Z,8.77
2019-01-11T13:01:16.272Z,6.77
2019-01-11T13:07:20.800Z,7.17
2019-01-11T13:13:25.357Z,6.50
2019-01-11T13:19:29.963Z,5.90
2019-01-11T13:25:34.498Z,6.50
2019-01-11T13:31:39.062Z,6.63
2019-01-11T13:37:43.846Z,4.97
2019-01-11T13:43:48.447Z,23.33
2019-01-11T13:49:52.990Z,10.33
2019-01-11T13:55:57.561Z,9.80
2019-01-11T14:02:02.238Z,8.17
2019-01-11T14:08:06.849Z,11.70
2019-01-11T14:14:11.448Z,7.43
2019-01-11T14:20:16.066Z,6.20
2019-01-11T14:26:20.727Z,6.30
2019-01-11T14:32:27.968Z,5.43
2019-01-11T14:38:32.518Z,4.37
2019-01-11T14:44:37.965Z,4.97
2019-01-11T14:50:42.580Z,5.07
2019-01-11T14:56:47.119Z,5.90
2019-01-11T15:02:51.856Z,5.07
2019-01-11T15:08:56.401Z,6.97
2019-01-11T15:15:00.947Z,10.43
2019-01-11T15:21:05.553Z,5.50
2019-01-11T15:27:10.176Z,5.33
2019-01-11T15:33:14.709Z,9.50
2019-01-11T15:39:19.285Z,6.90
2019-01-11T15:45:23.899Z,5.23
2019-01-11T15:51:28.440Z,6.37
2019-01-11T15:57:37.546Z,7.30
2019-01-11T16:03:42.655Z,7.33
2019-01-11T16:09:56.431Z,5.20
2019-01-11T16:16:03.770Z,8.40
2019-01-11T16:22:08.339Z,9.70
2019-01-11T16:28:12.966Z,42.47
2019-01-11T16:34:17.520Z,9.80
2019-01-11T16:40:22.068Z,9.40
2019-01-11T16:46:26.614Z,12.63
2019-01-11T16:52:31.174Z,19.80
2019-01-11T16:58:35.879Z,19.00
2019-01-11T17:04:40.439Z,15.30
2019-01-11T17:10:44.985Z,10.30
2019-01-11T17:16:49.543Z,12.33
2019-01-11T17:22:54.082Z,9.87
2019-01-11T17:28:58.633Z,10.87
2019-01-11T17:35:04.943Z,17.53
2019-01-11T17:41:09.734Z,16.40
2019-01-11T17:47:14.289Z,11.43
2019-01-11T17:53:18.830Z,19.43
2019-01-11T17:59:23.396Z,23.43
2019-01-11T18:05:27.941Z,13.20
2019-01-11T18:11:32.506Z,10.13
2019-01-11T18:17:37.062Z,9.83
2019-01-11T18:23:41.629Z,8.83
2019-01-11T18:29:46.174Z,7.53
2019-01-11T18:35:50.695Z,7.40
2019-01-11T18:41:55.255Z,6.60
2019-01-11T18:47:59.793Z,7.63
2019-01-11T18:54:04.512Z,7.80
2019-01-11T19:00:18.642Z,4.90
2019-01-11T19:06:23.198Z,5.00
2019-01-11T19:12:27.767Z,5.00
2019-01-11T19:18:32.357Z,4.93
2019-01-11T19:24:36.906Z,3.60
2019-01-11T19:30:41.446Z,7.13
2019-01-11T19:36:46.003Z,3.50
2019-01-11T19:42:50.528Z,2.90
2019-01-11T19:48:55.073Z,4.40
2019-01-11T19:54:59.690Z,4.23
2019-01-11T20:01:04.621Z,4.13
2019-01-11T20:07:09.143Z,5.43
2019-01-11T20:13:13.818Z,4.60
2019-01-11T20:19:18.351Z,4.10
2019-01-11T20:25:24.797Z,3.20
2019-01-11T20:31:29.428Z,3.57
2019-01-11T20:37:34.906Z,4.40
2019-01-11T20:43:39.625Z,5.17
2019-01-11T20:49:44.205Z,4.90
2019-01-11T20:55:48.812Z,3.00
2019-01-11T21:01:53.350Z,3.53
2019-01-11T21:07:58.028Z,4.90
2019-01-11T21:14:02.673Z,5.40
2019-01-11T21:20:14.408Z,6.73
2019-01-11T21:26:18.985Z,6.97
2019-01-11T21:32:23.505Z,3.07
2019-01-11T21:38:28.046Z,3.10
2019-01-11T21:44:32.588Z,4.30
2019-01-11T21:50:37.130Z,9.20
2019-01-11T21:56:41.673Z,6.03
2019-01-11T22:02:46.299Z,4.60
2019-01-11T22:08:50.842Z,4.63
2019-01-11T22:14:55.385Z,4.73
2019-01-11T22:20:59.905Z,3.20
2019-01-11T22:27:04.583Z,3.83
2019-01-11T22:33:09.121Z,3.50
2019-01-11T22:39:13.653Z,3.67
2019-01-11T22:45:18.216Z,4.63
2019-01-11T22:51:22.760Z,4.90
2019-01-11T22:57:27.302Z,3.97
2019-01-11T23:03:38.917Z,6.57
2019-01-11T23:09:44.158Z,5.17
2019-01-11T23:15:48.932Z,5.50
2019-01-11T23:21:53.462Z,5.60
2019-01-11T23:27:58.004Z,4.10
2019-01-11T23:34:02.543Z,4.80
2019-01-11T23:40:11.444Z,5.87
2019-01-11T23:46:16.048Z,5.20
2019-01-11T23:52:20.650Z,5.63
2019-01-11T23:58:25.217Z,4.07
